sensor_id;sensor_type;location;lat;lon;timestamp;P1;durP1;ratioP1;P2;durP2;ratioP2
67160;SDS011;54088;52.238;21.104;2022-07-29T00:01:36;9.50;;;3.90;;
67160;SDS011;54088;52.238;21.104;2022-07-29T00:04:02;9.13;;;4.40;;
67160;SDS011;54088;52.238;21.104;2022-07-29T00:06:27;8.15;;;3.65;;
67160;SDS011;54088;52.238;21.104;2022-07-29T00:08:53;7.90;;;3.70;;
67160;SDS011;54088;52.238;21.104;2022-07-29T00:11:19;6.90;;;3.42;;
67160;SDS011;54088;52.238;21.104;2022-07-29T00:13:44;8.98;;;3.75;;
67160;SDS011;54088;52.238;21.104;2022-07-29T00:16:10;8.93;;;3.97;;
67160;SDS011;54088;52.238;21.104;2022-07-29T00:18:36;7.65;;;3.72;;
67160;SDS011;54088;52.238;21.104;2022-07-29T00:21:01;8.48;;;3.78;;
67160;SDS011;54088;52.238;21.104;2022-07-29T00:23:27;8.45;;;3.70;;
67160;SDS011;54088;52.238;21.104;2022-07-29T00:25:53;9.18;;;3.65;;
67160;SDS011;54088;52.238;21.104;2022-07-29T00:28:18;7.50;;;3.75;;
67160;SDS011;54088;52.238;21.104;2022-07-29T00:30:44;7.32;;;3.65;;
67160;SDS011;54088;52.238;21.104;2022-07-29T00:33:10;9.80;;;4.32;;
67160;SDS011;54088;52.238;21.104;2022-07-29T00:35:35;6.03;;;3.78;;
67160;SDS011;54088;52.238;21.104;2022-07-29T00:38:14;10.43;;;4.07;;
67160;SDS011;54088;52.238;21.104;2022-07-29T00:40:41;7.50;;;4.00;;
67160;SDS011;54088;52.238;21.104;2022-07-29T00:43:07;6.95;;;3.83;;
67160;SDS011;54088;52.238;21.104;2022-07-29T00:45:33;9.60;;;4.10;;
67160;SDS011;54088;52.238;21.104;2022-07-29T00:47:58;8.75;;;4.03;;
67160;SDS011;54088;52.238;21.104;2022-07-29T00:50:24;12.98;;;3.97;;
67160;SDS011;54088;52.238;21.104;2022-07-29T00:52:50;9.00;;;3.85;;
67160;SDS011;54088;52.238;21.104;2022-07-29T00:55:17;6.03;;;3.50;;
67160;SDS011;54088;52.238;21.104;2022-07-29T00:57:43;6.57;;;3.80;;
67160;SDS011;54088;52.238;21.104;2022-07-29T01:00:11;8.73;;;5.28;;
67160;SDS011;54088;52.238;21.104;2022-07-29T01:02:39;8.02;;;4.63;;
67160;SDS011;54088;52.238;21.104;2022-07-29T01:05:05;9.38;;;3.75;;
67160;SDS011;54088;52.238;21.104;2022-07-29T01:07:33;8.48;;;3.38;;
67160;SDS011;54088;52.238;21.104;2022-07-29T01:10:01;7.60;;;3.53;;
67160;SDS011;54088;52.238;21.104;2022-07-29T01:12:31;5.80;;;2.97;;
67160;SDS011;54088;52.238;21.104;2022-07-29T01:15:00;6.25;;;3.20;;
67160;SDS011;54088;52.238;21.104;2022-07-29T01:17:39;7.80;;;3.83;;
67160;SDS011;54088;52.238;21.104;2022-07-29T01:30:25;7.38;;;3.58;;
67160;SDS011;54088;52.238;21.104;2022-07-29T01:32:54;6.25;;;3.45;;
67160;SDS011;54088;52.238;21.104;2022-07-29T01:35:26;6.63;;;3.22;;
67160;SDS011;54088;52.238;21.104;2022-07-29T01:38:05;6.65;;;3.00;;
67160;SDS011;54088;52.238;21.104;2022-07-29T01:40:58;7.90;;;3.95;;
67160;SDS011;54088;52.238;21.104;2022-07-29T01:43:39;10.63;;;3.92;;
67160;SDS011;54088;52.238;21.104;2022-07-29T01:46:14;10.38;;;3.80;;
67160;SDS011;54088;52.238;21.104;2022-07-29T01:48:47;7.72;;;3.28;;
67160;SDS011;54088;52.238;21.104;2022-07-29T01:56:11;7.38;;;3.97;;
67160;SDS011;54088;52.238;21.104;2022-07-29T01:58:40;8.35;;;3.80;;
67160;SDS011;54088;52.238;21.104;2022-07-29T02:01:08;9.07;;;3.70;;
67160;SDS011;54088;52.238;21.104;2022-07-29T02:03:36;9.45;;;4.25;;
67160;SDS011;54088;52.238;21.104;2022-07-29T02:06:03;7.15;;;3.78;;
67160;SDS011;54088;52.238;21.104;2022-07-29T02:08:30;7.70;;;3.83;;
67160;SDS011;54088;52.238;21.104;2022-07-29T02:10:58;7.45;;;3.50;;
67160;SDS011;54088;52.238;21.104;2022-07-29T02:13:25;9.48;;;3.58;;
67160;SDS011;54088;52.238;21.104;2022-07-29T02:15:52;6.78;;;3.78;;
67160;SDS011;54088;52.238;21.104;2022-07-29T02:18:20;7.85;;;4.07;;
67160;SDS011;54088;52.238;21.104;2022-07-29T02:20:49;6.65;;;4.38;;
67160;SDS011;54088;52.238;21.104;2022-07-29T02:23:19;8.25;;;4.07;;
67160;SDS011;54088;52.238;21.104;2022-07-29T02:25:47;7.50;;;3.80;;
67160;SDS011;54088;52.238;21.104;2022-07-29T02:28:16;7.00;;;4.20;;
67160;SDS011;54088;52.238;21.104;2022-07-29T02:30:42;6.82;;;3.63;;
67160;SDS011;54088;52.238;21.104;2022-07-29T02:33:09;7.57;;;4.20;;
67160;SDS011;54088;52.238;21.104;2022-07-29T02:35:40;9.20;;;3.83;;
67160;SDS011;54088;52.238;21.104;2022-07-29T02:38:08;7.20;;;3.75;;
67160;SDS011;54088;52.238;21.104;2022-07-29T02:40:56;7.63;;;4.43;;
67160;SDS011;54088;52.238;21.104;2022-07-29T02:43:23;7.40;;;4.20;;
67160;SDS011;54088;52.238;21.104;2022-07-29T02:45:51;9.55;;;4.30;;
67160;SDS011;54088;52.238;21.104;2022-07-29T02:48:20;9.30;;;3.80;;
67160;SDS011;54088;52.238;21.104;2022-07-29T02:50:54;7.03;;;3.67;;
67160;SDS011;54088;52.238;21.104;2022-07-29T02:53:28;7.70;;;3.90;;
67160;SDS011;54088;52.238;21.104;2022-07-29T02:56:13;7.35;;;4.10;;
67160;SDS011;54088;52.238;21.104;2022-07-29T02:58:42;9.85;;;3.88;;
67160;SDS011;54088;52.238;21.104;2022-07-29T03:01:21;6.88;;;3.40;;
67160;SDS011;54088;52.238;21.104;2022-07-29T03:03:49;5.88;;;3.38;;
67160;SDS011;54088;52.238;21.104;2022-07-29T03:06:17;7.43;;;3.40;;
67160;SDS011;54088;52.238;21.104;2022-07-29T03:08:44;7.20;;;3.97;;
67160;SDS011;54088;52.238;21.104;2022-07-29T03:11:11;5.85;;;3.13;;
67160;SDS011;54088;52.238;21.104;2022-07-29T03:13:37;6.07;;;3.63;;
67160;SDS011;54088;52.238;21.104;2022-07-29T03:16:04;7.00;;;3.78;;
67160;SDS011;54088;52.238;21.104;2022-07-29T03:18:31;5.30;;;2.88;;
67160;SDS011;54088;52.238;21.104;2022-07-29T03:20:57;7.47;;;3.92;;
67160;SDS011;54088;52.238;21.104;2022-07-29T03:23:23;5.90;;;3.95;;
67160;SDS011;54088;52.238;21.104;2022-07-29T03:25:51;6.75;;;4.10;;
67160;SDS011;54088;52.238;21.104;2022-07-29T03:28:17;6.43;;;3.33;;
67160;SDS011;54088;52.238;21.104;2022-07-29T03:30:42;7.22;;;3.97;;
67160;SDS011;54088;52.238;21.104;2022-07-29T03:33:08;5.63;;;3.30;;
67160;SDS011;54088;52.238;21.104;2022-07-29T03:35:34;7.05;;;3.45;;
67160;SDS011;54088;52.238;21.104;2022-07-29T03:38:00;5.93;;;3.42;;
67160;SDS011;54088;52.238;21.104;2022-07-29T03:43:05;8.52;;;3.53;;
67160;SDS011;54088;52.238;21.104;2022-07-29T03:45:33;9.00;;;3.58;;
67160;SDS011;54088;52.238;21.104;2022-07-29T03:48:01;6.53;;;3.25;;
67160;SDS011;54088;52.238;21.104;2022-07-29T03:50:32;10.13;;;3.70;;
67160;SDS011;54088;52.238;21.104;2022-07-29T03:52:59;9.68;;;3.53;;
67160;SDS011;54088;52.238;21.104;2022-07-29T03:55:26;6.28;;;3.63;;
67160;SDS011;54088;52.238;21.104;2022-07-29T03:57:54;8.65;;;3.80;;
67160;SDS011;54088;52.238;21.104;2022-07-29T04:00:22;5.40;;;2.90;;
67160;SDS011;54088;52.238;21.104;2022-07-29T04:02:49;5.45;;;3.20;;
67160;SDS011;54088;52.238;21.104;2022-07-29T04:05:18;6.75;;;3.00;;
67160;SDS011;54088;52.238;21.104;2022-07-29T04:07:44;8.13;;;3.78;;
67160;SDS011;54088;52.238;21.104;2022-07-29T04:10:11;6.90;;;2.80;;
67160;SDS011;54088;52.238;21.104;2022-07-29T04:12:37;6.00;;;2.58;;
67160;SDS011;54088;52.238;21.104;2022-07-29T04:15:03;5.95;;;2.63;;
67160;SDS011;54088;52.238;21.104;2022-07-29T04:17:29;6.70;;;2.83;;
67160;SDS011;54088;52.238;21.104;2022-07-29T04:19:55;6.05;;;2.88;;
67160;SDS011;54088;52.238;21.104;2022-07-29T04:22:21;7.07;;;2.58;;
67160;SDS011;54088;52.238;21.104;2022-07-29T04:24:46;6.25;;;2.78;;
67160;SDS011;54088;52.238;21.104;2022-07-29T04:27:12;6.10;;;2.58;;
67160;SDS011;54088;52.238;21.104;2022-07-29T04:29:38;6.18;;;2.60;;
67160;SDS011;54088;52.238;21.104;2022-07-29T04:32:03;5.13;;;2.85;;
67160;SDS011;54088;52.238;21.104;2022-07-29T04:34:29;5.20;;;2.58;;
67160;SDS011;54088;52.238;21.104;2022-07-29T04:36:55;6.05;;;2.33;;
67160;SDS011;54088;52.238;21.104;2022-07-29T04:39:21;6.07;;;2.75;;
67160;SDS011;54088;52.238;21.104;2022-07-29T04:41:46;4.53;;;2.08;;
67160;SDS011;54088;52.238;21.104;2022-07-29T04:44:12;5.90;;;2.22;;
67160;SDS011;54088;52.238;21.104;2022-07-29T04:46:38;5.47;;;2.40;;
67160;SDS011;54088;52.238;21.104;2022-07-29T04:49:04;6.20;;;2.35;;
67160;SDS011;54088;52.238;21.104;2022-07-29T04:51:30;4.43;;;1.90;;
67160;SDS011;54088;52.238;21.104;2022-07-29T04:53:55;6.45;;;2.33;;
67160;SDS011;54088;52.238;21.104;2022-07-29T04:56:21;5.53;;;1.92;;
67160;SDS011;54088;52.238;21.104;2022-07-29T04:58:47;5.43;;;1.83;;
67160;SDS011;54088;52.238;21.104;2022-07-29T05:01:13;4.22;;;1.92;;
67160;SDS011;54088;52.238;21.104;2022-07-29T05:03:39;5.15;;;1.65;;
67160;SDS011;54088;52.238;21.104;2022-07-29T05:06:05;6.20;;;2.58;;
67160;SDS011;54088;52.238;21.104;2022-07-29T05:08:31;6.05;;;1.85;;
67160;SDS011;54088;52.238;21.104;2022-07-29T05:10:56;5.95;;;1.83;;
67160;SDS011;54088;52.238;21.104;2022-07-29T05:13:22;3.97;;;1.65;;
67160;SDS011;54088;52.238;21.104;2022-07-29T05:15:47;4.50;;;1.65;;
67160;SDS011;54088;52.238;21.104;2022-07-29T05:18:13;4.43;;;1.80;;
67160;SDS011;54088;52.238;21.104;2022-07-29T05:20:39;3.58;;;1.48;;
67160;SDS011;54088;52.238;21.104;2022-07-29T05:23:05;3.95;;;1.80;;
67160;SDS011;54088;52.238;21.104;2022-07-29T05:25:30;6.07;;;2.08;;
67160;SDS011;54088;52.238;21.104;2022-07-29T05:27:56;3.05;;;1.42;;
67160;SDS011;54088;52.238;21.104;2022-07-29T05:30:22;4.85;;;2.05;;
67160;SDS011;54088;52.238;21.104;2022-07-29T05:32:48;3.38;;;1.55;;
67160;SDS011;54088;52.238;21.104;2022-07-29T05:35:14;4.28;;;1.73;;
67160;SDS011;54088;52.238;21.104;2022-07-29T05:37:40;3.95;;;1.73;;
67160;SDS011;54088;52.238;21.104;2022-07-29T05:40:07;4.22;;;1.70;;
67160;SDS011;54088;52.238;21.104;2022-07-29T05:42:33;4.45;;;1.88;;
67160;SDS011;54088;52.238;21.104;2022-07-29T05:44:59;6.15;;;2.13;;
67160;SDS011;54088;52.238;21.104;2022-07-29T05:47:25;4.20;;;1.80;;
67160;SDS011;54088;52.238;21.104;2022-07-29T05:49:51;3.80;;;1.42;;
67160;SDS011;54088;52.238;21.104;2022-07-29T05:52:17;4.57;;;1.65;;
67160;SDS011;54088;52.238;21.104;2022-07-29T05:54:43;4.90;;;1.50;;
67160;SDS011;54088;52.238;21.104;2022-07-29T05:57:14;4.57;;;1.80;;
67160;SDS011;54088;52.238;21.104;2022-07-29T05:59:41;3.25;;;1.30;;
67160;SDS011;54088;52.238;21.104;2022-07-29T06:02:07;3.33;;;1.30;;
67160;SDS011;54088;52.238;21.104;2022-07-29T06:04:33;4.45;;;1.65;;
67160;SDS011;54088;52.238;21.104;2022-07-29T06:06:59;4.88;;;1.40;;
67160;SDS011;54088;52.238;21.104;2022-07-29T06:09:24;3.80;;;1.48;;
67160;SDS011;54088;52.238;21.104;2022-07-29T06:11:51;6.13;;;1.50;;
67160;SDS011;54088;52.238;21.104;2022-07-29T06:14:17;5.43;;;1.40;;
67160;SDS011;54088;52.238;21.104;2022-07-29T06:16:43;5.90;;;1.50;;
67160;SDS011;54088;52.238;21.104;2022-07-29T06:19:08;2.60;;;1.20;;
67160;SDS011;54088;52.238;21.104;2022-07-29T06:21:34;2.88;;;1.20;;
67160;SDS011;54088;52.238;21.104;2022-07-29T06:24:00;4.47;;;1.42;;
67160;SDS011;54088;52.238;21.104;2022-07-29T06:26:25;4.63;;;1.30;;
67160;SDS011;54088;52.238;21.104;2022-07-29T06:28:51;4.80;;;1.33;;
67160;SDS011;54088;52.238;21.104;2022-07-29T06:31:16;3.22;;;1.20;;
67160;SDS011;54088;52.238;21.104;2022-07-29T06:33:42;3.67;;;1.20;;
67160;SDS011;54088;52.238;21.104;2022-07-29T06:36:08;5.75;;;1.27;;
67160;SDS011;54088;52.238;21.104;2022-07-29T06:38:34;3.95;;;1.27;;
67160;SDS011;54088;52.238;21.104;2022-07-29T06:40:59;3.88;;;1.33;;
67160;SDS011;54088;52.238;21.104;2022-07-29T06:43:34;3.70;;;1.40;;
67160;SDS011;54088;52.238;21.104;2022-07-29T06:46:04;5.70;;;1.35;;
67160;SDS011;54088;52.238;21.104;2022-07-29T06:48:32;4.10;;;1.38;;
67160;SDS011;54088;52.238;21.104;2022-07-29T06:50:58;3.60;;;1.25;;
67160;SDS011;54088;52.238;21.104;2022-07-29T06:53:24;2.72;;;0.93;;
67160;SDS011;54088;52.238;21.104;2022-07-29T06:55:50;1.88;;;1.00;;
67160;SDS011;54088;52.238;21.104;2022-07-29T06:58:16;2.85;;;1.20;;
67160;SDS011;54088;52.238;21.104;2022-07-29T07:00:43;3.08;;;1.00;;
67160;SDS011;54088;52.238;21.104;2022-07-29T07:03:10;3.83;;;1.15;;
67160;SDS011;54088;52.238;21.104;2022-07-29T07:05:35;3.40;;;1.40;;
67160;SDS011;54088;52.238;21.104;2022-07-29T07:08:01;4.07;;;1.25;;
67160;SDS011;54088;52.238;21.104;2022-07-29T07:10:28;3.70;;;1.10;;
67160;SDS011;54088;52.238;21.104;2022-07-29T07:12:54;4.88;;;1.40;;
67160;SDS011;54088;52.238;21.104;2022-07-29T07:15:20;4.05;;;1.30;;
67160;SDS011;54088;52.238;21.104;2022-07-29T07:17:48;4.18;;;1.20;;
67160;SDS011;54088;52.238;21.104;2022-07-29T07:20:14;4.70;;;1.23;;
67160;SDS011;54088;52.238;21.104;2022-07-29T07:22:41;3.50;;;1.10;;
67160;SDS011;54088;52.238;21.104;2022-07-29T07:25:07;2.92;;;1.10;;
67160;SDS011;54088;52.238;21.104;2022-07-29T07:27:33;3.88;;;1.50;;
67160;SDS011;54088;52.238;21.104;2022-07-29T07:29:59;2.38;;;1.10;;
67160;SDS011;54088;52.238;21.104;2022-07-29T07:32:25;2.05;;;0.90;;
67160;SDS011;54088;52.238;21.104;2022-07-29T07:34:51;3.20;;;1.10;;
67160;SDS011;54088;52.238;21.104;2022-07-29T07:37:17;3.60;;;1.33;;
67160;SDS011;54088;52.238;21.104;2022-07-29T07:39:45;5.47;;;1.45;;
67160;SDS011;54088;52.238;21.104;2022-07-29T07:42:11;4.70;;;1.33;;
67160;SDS011;54088;52.238;21.104;2022-07-29T07:44:38;4.97;;;1.10;;
67160;SDS011;54088;52.238;21.104;2022-07-29T07:47:04;7.65;;;1.88;;
67160;SDS011;54088;52.238;21.104;2022-07-29T07:49:30;3.95;;;1.50;;
67160;SDS011;54088;52.238;21.104;2022-07-29T07:51:56;4.97;;;1.25;;
67160;SDS011;54088;52.238;21.104;2022-07-29T07:54:22;3.75;;;1.20;;
67160;SDS011;54088;52.238;21.104;2022-07-29T07:56:47;4.55;;;1.20;;
67160;SDS011;54088;52.238;21.104;2022-07-29T07:59:16;5.80;;;1.50;;
67160;SDS011;54088;52.238;21.104;2022-07-29T08:01:42;4.32;;;1.30;;
67160;SDS011;54088;52.238;21.104;2022-07-29T08:04:08;3.58;;;1.15;;
67160;SDS011;54088;52.238;21.104;2022-07-29T08:06:34;3.95;;;1.38;;
67160;SDS011;54088;52.238;21.104;2022-07-29T08:09:01;4.90;;;1.30;;
67160;SDS011;54088;52.238;21.104;2022-07-29T08:11:27;4.25;;;1.17;;
67160;SDS011;54088;52.238;21.104;2022-07-29T08:13:53;4.78;;;1.30;;
67160;SDS011;54088;52.238;21.104;2022-07-29T08:16:19;4.03;;;1.20;;
67160;SDS011;54088;52.238;21.104;2022-07-29T08:18:45;4.78;;;1.40;;
67160;SDS011;54088;52.238;21.104;2022-07-29T08:21:11;3.72;;;1.30;;
67160;SDS011;54088;52.238;21.104;2022-07-29T08:23:37;3.17;;;1.33;;
67160;SDS011;54088;52.238;21.104;2022-07-29T08:26:07;3.47;;;1.45;;
67160;SDS011;54088;52.238;21.104;2022-07-29T08:28:36;4.85;;;1.20;;
67160;SDS011;54088;52.238;21.104;2022-07-29T08:31:03;4.38;;;1.65;;
67160;SDS011;54088;52.238;21.104;2022-07-29T08:33:29;4.45;;;1.30;;
67160;SDS011;54088;52.238;21.104;2022-07-29T08:35:54;5.60;;;1.58;;
67160;SDS011;54088;52.238;21.104;2022-07-29T08:38:20;4.75;;;1.55;;
67160;SDS011;54088;52.238;21.104;2022-07-29T08:40:46;4.43;;;1.30;;
67160;SDS011;54088;52.238;21.104;2022-07-29T08:43:12;3.45;;;1.58;;
67160;SDS011;54088;52.238;21.104;2022-07-29T08:45:42;5.60;;;1.20;;
67160;SDS011;54088;52.238;21.104;2022-07-29T08:48:11;4.55;;;1.30;;
67160;SDS011;54088;52.238;21.104;2022-07-29T08:50:38;3.58;;;1.40;;
67160;SDS011;54088;52.238;21.104;2022-07-29T08:53:06;6.07;;;1.52;;
67160;SDS011;54088;52.238;21.104;2022-07-29T08:55:35;5.05;;;1.35;;
67160;SDS011;54088;52.238;21.104;2022-07-29T08:58:04;4.15;;;1.40;;
67160;SDS011;54088;52.238;21.104;2022-07-29T09:00:30;3.47;;;1.40;;
67160;SDS011;54088;52.238;21.104;2022-07-29T09:02:57;6.55;;;1.67;;
67160;SDS011;54088;52.238;21.104;2022-07-29T09:05:24;3.75;;;1.52;;
67160;SDS011;54088;52.238;21.104;2022-07-29T09:07:51;5.13;;;1.50;;
67160;SDS011;54088;52.238;21.104;2022-07-29T09:10:17;4.45;;;1.50;;
67160;SDS011;54088;52.238;21.104;2022-07-29T09:12:43;3.72;;;1.40;;
67160;SDS011;54088;52.238;21.104;2022-07-29T09:15:09;3.05;;;1.20;;
67160;SDS011;54088;52.238;21.104;2022-07-29T09:17:41;3.90;;;1.25;;
67160;SDS011;54088;52.238;21.104;2022-07-29T09:20:08;2.92;;;1.33;;
67160;SDS011;54088;52.238;21.104;2022-07-29T09:22:35;2.92;;;1.27;;
67160;SDS011;54088;52.238;21.104;2022-07-29T09:25:01;4.13;;;1.30;;
67160;SDS011;54088;52.238;21.104;2022-07-29T09:27:27;3.58;;;1.60;;
67160;SDS011;54088;52.238;21.104;2022-07-29T09:32:25;6.32;;;1.30;;
67160;SDS011;54088;52.238;21.104;2022-07-29T09:35:13;4.63;;;1.30;;
67160;SDS011;54088;52.238;21.104;2022-07-29T09:37:44;5.45;;;1.45;;
67160;SDS011;54088;52.238;21.104;2022-07-29T09:40:14;4.10;;;1.45;;
67160;SDS011;54088;52.238;21.104;2022-07-29T09:42:42;4.82;;;1.60;;
67160;SDS011;54088;52.238;21.104;2022-07-29T09:45:08;4.88;;;1.25;;
67160;SDS011;54088;52.238;21.104;2022-07-29T09:47:41;5.22;;;1.40;;
67160;SDS011;54088;52.238;21.104;2022-07-29T09:50:12;2.50;;;1.00;;
67160;SDS011;54088;52.238;21.104;2022-07-29T09:55:16;4.95;;;1.42;;
67160;SDS011;54088;52.238;21.104;2022-07-29T09:57:43;5.13;;;1.35;;
67160;SDS011;54088;52.238;21.104;2022-07-29T10:00:10;3.50;;;1.13;;
67160;SDS011;54088;52.238;21.104;2022-07-29T10:02:41;2.78;;;1.10;;
67160;SDS011;54088;52.238;21.104;2022-07-29T10:05:19;4.57;;;1.10;;
67160;SDS011;54088;52.238;21.104;2022-07-29T10:07:48;7.65;;;1.40;;
67160;SDS011;54088;52.238;21.104;2022-07-29T10:10:22;6.65;;;1.30;;
67160;SDS011;54088;52.238;21.104;2022-07-29T10:15:15;3.35;;;1.30;;
67160;SDS011;54088;52.238;21.104;2022-07-29T10:17:41;5.47;;;1.33;;
67160;SDS011;54088;52.238;21.104;2022-07-29T10:20:07;4.90;;;1.30;;
67160;SDS011;54088;52.238;21.104;2022-07-29T10:22:33;4.32;;;1.88;;
67160;SDS011;54088;52.238;21.104;2022-07-29T10:24:59;8.25;;;3.38;;
67160;SDS011;54088;52.238;21.104;2022-07-29T10:27:24;4.03;;;1.10;;
67160;SDS011;54088;52.238;21.104;2022-07-29T10:29:50;7.25;;;1.67;;
67160;SDS011;54088;52.238;21.104;2022-07-29T10:35:11;2.92;;;1.10;;
67160;SDS011;54088;52.238;21.104;2022-07-29T10:40:31;4.70;;;1.27;;
67160;SDS011;54088;52.238;21.104;2022-07-29T10:43:31;4.85;;;1.20;;
67160;SDS011;54088;52.238;21.104;2022-07-29T10:46:01;3.03;;;1.20;;
67160;SDS011;54088;52.238;21.104;2022-07-29T10:48:28;3.33;;;1.20;;
67160;SDS011;54088;52.238;21.104;2022-07-29T10:51:04;2.97;;;1.25;;
67160;SDS011;54088;52.238;21.104;2022-07-29T10:56:28;3.78;;;1.25;;
67160;SDS011;54088;52.238;21.104;2022-07-29T11:01:46;2.55;;;1.00;;
67160;SDS011;54088;52.238;21.104;2022-07-29T11:04:12;2.67;;;1.10;;
67160;SDS011;54088;52.238;21.104;2022-07-29T11:09:29;2.53;;;1.00;;
67160;SDS011;54088;52.238;21.104;2022-07-29T11:11:55;2.72;;;1.15;;
67160;SDS011;54088;52.238;21.104;2022-07-29T11:15:08;3.83;;;1.17;;
67160;SDS011;54088;52.238;21.104;2022-07-29T11:17:16;2.75;;;1.05;;
67160;SDS011;54088;52.238;21.104;2022-07-29T11:19:42;3.53;;;1.27;;
67160;SDS011;54088;52.238;21.104;2022-07-29T11:22:09;4.35;;;1.27;;
67160;SDS011;54088;52.238;21.104;2022-07-29T11:24:36;3.25;;;1.10;;
67160;SDS011;54088;52.238;21.104;2022-07-29T11:29:52;3.30;;;1.48;;
67160;SDS011;54088;52.238;21.104;2022-07-29T11:32:23;3.47;;;1.23;;
67160;SDS011;54088;52.238;21.104;2022-07-29T11:43:48;3.35;;;1.10;;
67160;SDS011;54088;52.238;21.104;2022-07-29T11:47:03;3.22;;;1.23;;
67160;SDS011;54088;52.238;21.104;2022-07-29T11:49:24;4.00;;;1.20;;
67160;SDS011;54088;52.238;21.104;2022-07-29T11:51:51;4.45;;;1.40;;
67160;SDS011;54088;52.238;21.104;2022-07-29T11:54:24;4.93;;;1.40;;
67160;SDS011;54088;52.238;21.104;2022-07-29T11:56:52;3.95;;;1.30;;
67160;SDS011;54088;52.238;21.104;2022-07-29T11:59:18;3.63;;;1.30;;
67160;SDS011;54088;52.238;21.104;2022-07-29T12:01:58;6.60;;;1.52;;
67160;SDS011;54088;52.238;21.104;2022-07-29T12:04:24;3.03;;;1.10;;
67160;SDS011;54088;52.238;21.104;2022-07-29T12:06:53;5.30;;;1.57;;
67160;SDS011;54088;52.238;21.104;2022-07-29T12:09:20;3.42;;;1.20;;
67160;SDS011;54088;52.238;21.104;2022-07-29T12:11:47;5.20;;;1.70;;
67160;SDS011;54088;52.238;21.104;2022-07-29T12:16:54;5.18;;;1.10;;
67160;SDS011;54088;52.238;21.104;2022-07-29T12:19:20;3.33;;;1.02;;
67160;SDS011;54088;52.238;21.104;2022-07-29T12:21:47;4.20;;;1.33;;
67160;SDS011;54088;52.238;21.104;2022-07-29T12:24:14;3.70;;;1.02;;
67160;SDS011;54088;52.238;21.104;2022-07-29T12:29:22;2.72;;;1.20;;
67160;SDS011;54088;52.238;21.104;2022-07-29T12:31:52;2.97;;;1.08;;
67160;SDS011;54088;52.238;21.104;2022-07-29T12:34:22;1.77;;;1.00;;
67160;SDS011;54088;52.238;21.104;2022-07-29T12:36:51;3.40;;;1.10;;
67160;SDS011;54088;52.238;21.104;2022-07-29T12:39:17;3.83;;;1.10;;
67160;SDS011;54088;52.238;21.104;2022-07-29T12:41:43;4.38;;;1.40;;
67160;SDS011;54088;52.238;21.104;2022-07-29T12:44:10;2.50;;;1.10;;
67160;SDS011;54088;52.238;21.104;2022-07-29T12:46:36;6.22;;;1.02;;
67160;SDS011;54088;52.238;21.104;2022-07-29T12:49:02;3.20;;;1.10;;
67160;SDS011;54088;52.238;21.104;2022-07-29T12:51:30;3.67;;;1.35;;
67160;SDS011;54088;52.238;21.104;2022-07-29T12:54:19;4.95;;;1.35;;
67160;SDS011;54088;52.238;21.104;2022-07-29T12:56:45;2.22;;;1.20;;
67160;SDS011;54088;52.238;21.104;2022-07-29T12:59:17;7.32;;;1.42;;
67160;SDS011;54088;52.238;21.104;2022-07-29T13:01:45;3.08;;;1.10;;
67160;SDS011;54088;52.238;21.104;2022-07-29T13:04:31;3.80;;;1.20;;
67160;SDS011;54088;52.238;21.104;2022-07-29T13:06:58;3.53;;;1.30;;
67160;SDS011;54088;52.238;21.104;2022-07-29T13:09:35;3.30;;;1.10;;
67160;SDS011;54088;52.238;21.104;2022-07-29T13:12:06;4.72;;;1.15;;
67160;SDS011;54088;52.238;21.104;2022-07-29T13:14:43;3.92;;;1.38;;
67160;SDS011;54088;52.238;21.104;2022-07-29T13:17:11;4.88;;;1.20;;
67160;SDS011;54088;52.238;21.104;2022-07-29T13:19:53;4.60;;;1.20;;
67160;SDS011;54088;52.238;21.104;2022-07-29T13:22:37;4.07;;;1.33;;
67160;SDS011;54088;52.238;21.104;2022-07-29T13:25:05;2.80;;;1.27;;
67160;SDS011;54088;52.238;21.104;2022-07-29T13:27:35;3.28;;;1.20;;
67160;SDS011;54088;52.238;21.104;2022-07-29T13:30:07;4.50;;;1.30;;
67160;SDS011;54088;52.238;21.104;2022-07-29T13:32:34;3.30;;;1.30;;
67160;SDS011;54088;52.238;21.104;2022-07-29T13:35:02;3.35;;;1.20;;
67160;SDS011;54088;52.238;21.104;2022-07-29T13:37:32;4.40;;;1.10;;
67160;SDS011;54088;52.238;21.104;2022-07-29T13:40:03;2.38;;;1.10;;
67160;SDS011;54088;52.238;21.104;2022-07-29T13:42:30;4.03;;;1.17;;
67160;SDS011;54088;52.238;21.104;2022-07-29T13:44:56;3.33;;;1.20;;
67160;SDS011;54088;52.238;21.104;2022-07-29T13:47:22;2.88;;;1.15;;
67160;SDS011;54088;52.238;21.104;2022-07-29T13:49:48;4.28;;;1.10;;
67160;SDS011;54088;52.238;21.104;2022-07-29T13:52:14;3.78;;;1.40;;
67160;SDS011;54088;52.238;21.104;2022-07-29T13:54:40;4.55;;;1.27;;
67160;SDS011;54088;52.238;21.104;2022-07-29T13:57:06;4.10;;;1.17;;
67160;SDS011;54088;52.238;21.104;2022-07-29T13:59:32;3.83;;;1.25;;
67160;SDS011;54088;52.238;21.104;2022-07-29T14:01:58;3.45;;;1.05;;
67160;SDS011;54088;52.238;21.104;2022-07-29T14:04:24;6.72;;;1.30;;
67160;SDS011;54088;52.238;21.104;2022-07-29T14:06:50;4.40;;;1.10;;
67160;SDS011;54088;52.238;21.104;2022-07-29T14:09:19;3.60;;;1.03;;
67160;SDS011;54088;52.238;21.104;2022-07-29T14:11:45;3.35;;;1.45;;
67160;SDS011;54088;52.238;21.104;2022-07-29T14:14:11;3.92;;;0.95;;
67160;SDS011;54088;52.238;21.104;2022-07-29T14:16:37;3.50;;;1.23;;
67160;SDS011;54088;52.238;21.104;2022-07-29T14:19:03;4.25;;;1.15;;
67160;SDS011;54088;52.238;21.104;2022-07-29T14:21:28;7.20;;;1.33;;
67160;SDS011;54088;52.238;21.104;2022-07-29T14:23:55;5.50;;;1.35;;
67160;SDS011;54088;52.238;21.104;2022-07-29T14:26:21;2.67;;;0.88;;
67160;SDS011;54088;52.238;21.104;2022-07-29T14:28:47;2.70;;;1.10;;
67160;SDS011;54088;52.238;21.104;2022-07-29T14:31:13;6.40;;;1.50;;
67160;SDS011;54088;52.238;21.104;2022-07-29T14:33:39;2.58;;;1.20;;
67160;SDS011;54088;52.238;21.104;2022-07-29T14:36:05;3.50;;;1.20;;
67160;SDS011;54088;52.238;21.104;2022-07-29T14:38:31;2.78;;;1.23;;
67160;SDS011;54088;52.238;21.104;2022-07-29T14:40:56;5.32;;;1.30;;
67160;SDS011;54088;52.238;21.104;2022-07-29T14:43:22;5.15;;;1.40;;
67160;SDS011;54088;52.238;21.104;2022-07-29T14:45:48;4.78;;;1.55;;
67160;SDS011;54088;52.238;21.104;2022-07-29T14:48:13;4.60;;;1.20;;
67160;SDS011;54088;52.238;21.104;2022-07-29T14:50:39;3.45;;;1.30;;
67160;SDS011;54088;52.238;21.104;2022-07-29T14:53:05;2.45;;;1.10;;
67160;SDS011;54088;52.238;21.104;2022-07-29T14:55:31;3.65;;;1.00;;
67160;SDS011;54088;52.238;21.104;2022-07-29T14:57:57;4.05;;;0.98;;
67160;SDS011;54088;52.238;21.104;2022-07-29T15:00:24;4.97;;;1.05;;
67160;SDS011;54088;52.238;21.104;2022-07-29T15:02:50;3.97;;;1.30;;
67160;SDS011;54088;52.238;21.104;2022-07-29T15:05:16;2.80;;;1.10;;
67160;SDS011;54088;52.238;21.104;2022-07-29T15:07:42;3.03;;;1.27;;
67160;SDS011;54088;52.238;21.104;2022-07-29T15:10:08;4.35;;;1.17;;
67160;SDS011;54088;52.238;21.104;2022-07-29T15:12:34;5.00;;;1.30;;
67160;SDS011;54088;52.238;21.104;2022-07-29T15:14:59;6.82;;;1.10;;
67160;SDS011;54088;52.238;21.104;2022-07-29T15:17:25;2.90;;;1.13;;
67160;SDS011;54088;52.238;21.104;2022-07-29T15:19:51;3.90;;;1.30;;
67160;SDS011;54088;52.238;21.104;2022-07-29T15:22:16;4.55;;;1.20;;
67160;SDS011;54088;52.238;21.104;2022-07-29T15:24:42;3.20;;;1.20;;
67160;SDS011;54088;52.238;21.104;2022-07-29T15:27:08;3.00;;;1.20;;
67160;SDS011;54088;52.238;21.104;2022-07-29T15:29:38;2.55;;;1.00;;
67160;SDS011;54088;52.238;21.104;2022-07-29T15:32:05;4.18;;;1.00;;
67160;SDS011;54088;52.238;21.104;2022-07-29T15:34:31;2.97;;;1.17;;